createdAt,value
2023-01-04T00:00:46.945Z,15.80
2023-01-04T00:03:48.735Z,16.63
2023-01-04T00:06:50.503Z,16.00
2023-01-04T00:09:52.162Z,15.70
2023-01-04T00:12:53.921Z,15.77
2023-01-04T00:15:55.608Z,15.70
2023-01-04T00:18:57.771Z,16.63
2023-01-04T00:21:59.352Z,15.67
2023-01-04T00:25:00.964Z,16.23
2023-01-04T00:28:02.540Z,16.20
2023-01-04T00:31:08.486Z,15.30
2023-01-04T00:34:10.899Z,13.93
2023-01-04T00:37:12.742Z,14.60
2023-01-04T00:40:14.368Z,13.83
2023-01-04T00:43:16.005Z,13.17
2023-01-04T00:46:17.696Z,12.40
2023-01-04T00:49:19.383Z,12.93
2023-01-04T00:52:21.031Z,13.17
2023-01-04T00:55:22.641Z,14.57
2023-01-04T00:58:24.280Z,14.20
2023-01-04T01:01:26.422Z,14.83
2023-01-04T01:04:28.197Z,14.40
2023-01-04T01:07:29.892Z,13.83
2023-01-04T01:10:34.198Z,13.43
2023-01-04T01:13:36.737Z,12.83
2023-01-04T01:16:54.421Z,13.10
2023-01-04T01:19:57.261Z,13.83
2023-01-04T01:22:59.009Z,13.27
2023-01-04T01:26:01.676Z,14.57
2023-01-04T01:29:03.372Z,13.40
2023-01-04T01:32:05.193Z,13.53
2023-01-04T01:35:06.940Z,14.40
2023-01-04T01:38:08.656Z,14.73
2023-01-04T01:41:26.975Z,14.80
2023-01-04T01:44:46.725Z,14.57
2023-01-04T01:47:49.632Z,14.83
2023-01-04T01:50:53.874Z,14.30
2023-01-04T01:53:58.938Z,14.23
2023-01-04T01:57:02.026Z,15.00
2023-01-04T02:00:08.844Z,14.17
2023-01-04T02:03:18.393Z,14.20
2023-01-04T02:06:22.985Z,13.93
2023-01-04T02:09:24.605Z,14.30
2023-01-04T02:12:26.516Z,15.37
2023-01-04T02:15:34.807Z,13.83
2023-01-04T02:18:40.396Z,14.07
2023-01-04T02:21:44.958Z,13.50
2023-01-04T02:25:18.942Z,13.20
2023-01-04T02:28:38.945Z,13.00
2023-01-04T02:31:41.709Z,13.40
2023-01-04T02:34:58.475Z,13.37
2023-01-04T02:38:10.636Z,14.67
2023-01-04T02:41:27.660Z,14.07
2023-01-04T02:44:50.912Z,14.43
2023-01-04T02:48:11.273Z,14.37
2023-01-04T02:51:29.918Z,12.17
2023-01-04T02:54:32.611Z,12.07
2023-01-04T02:57:43.543Z,11.60
2023-01-04T03:01:09.497Z,12.37
2023-01-04T03:04:48.736Z,12.93
2023-01-04T03:07:56.805Z,11.63
2023-01-04T03:11:04.009Z,13.80
2023-01-04T03:14:31.992Z,12.97
2023-01-04T03:17:29.283Z,13.63
2023-01-04T03:20:31.555Z,14.13
2023-01-04T03:23:54.878Z,13.83
2023-01-04T03:27:22.240Z,14.33
2023-01-04T03:30:42.999Z,14.00
2023-01-04T03:34:03.365Z,13.93
2023-01-04T03:37:05.037Z,12.90
2023-01-04T03:40:35.927Z,12.83
2023-01-04T03:44:12.713Z,14.07
2023-01-04T03:47:38.016Z,14.43
2023-01-04T03:50:42.561Z,13.90
2023-01-04T03:53:56.537Z,13.80
2023-01-04T03:56:58.548Z,13.67
2023-01-04T04:00:07.611Z,12.93
2023-01-04T04:03:09.267Z,13.47
2023-01-04T04:06:29.540Z,15.67
2023-01-04T04:09:31.426Z,18.87
2023-01-04T04:12:32.945Z,18.73
2023-01-04T04:15:36.749Z,12.43
2023-01-04T04:18:38.398Z,14.97
2023-01-04T04:21:40.047Z,15.33
2023-01-04T04:24:41.689Z,15.80
2023-01-04T04:27:43.268Z,16.80
2023-01-04T04:30:44.823Z,14.93
2023-01-04T04:33:46.357Z,16.17
2023-01-04T04:36:48.042Z,15.30
2023-01-04T04:39:49.661Z,15.30
2023-01-04T04:42:51.316Z,16.30
2023-01-04T04:45:53.025Z,15.10
2023-01-04T04:48:54.761Z,16.93
2023-01-04T04:51:56.319Z,18.20
2023-01-04T04:54:58.010Z,18.90
2023-01-04T04:57:59.589Z,18.90
2023-01-04T05:01:01.509Z,19.57
2023-01-04T05:04:03.748Z,17.73
2023-01-04T05:07:12.060Z,17.30
2023-01-04T05:10:14.230Z,21.07
2023-01-04T05:13:15.853Z,23.03
2023-01-04T05:16:17.588Z,28.97
2023-01-04T05:19:20.276Z,25.50
2023-01-04T05:22:23.825Z,25.67
2023-01-04T05:25:25.581Z,25.23
2023-01-04T05:28:27.759Z,24.90
2023-01-04T05:32:01.527Z,25.07
2023-01-04T05:35:03.403Z,22.50
2023-01-04T05:38:05.111Z,22.60
2023-01-04T05:41:29.431Z,24.87
2023-01-04T05:44:31.037Z,25.20
2023-01-04T05:47:32.976Z,28.37
2023-01-04T05:50:34.654Z,35.15
2023-01-04T05:53:39.114Z,31.10
2023-01-04T05:56:40.727Z,31.30
2023-01-04T05:59:42.501Z,30.37
2023-01-04T06:02:44.451Z,30.47
2023-01-04T06:05:50.370Z,33.43
2023-01-04T06:08:52.205Z,32.83
2023-01-04T06:11:54.387Z,32.40
2023-01-04T06:14:56.091Z,27.10
2023-01-04T06:17:57.760Z,29.53
2023-01-04T06:20:59.400Z,30.03
2023-01-04T06:24:01.145Z,20.30
2023-01-04T06:27:03.574Z,20.53
2023-01-04T06:30:05.677Z,19.97
2023-01-04T06:33:07.214Z,17.20
2023-01-04T06:36:19.209Z,18.90
2023-01-04T06:39:21.884Z,33.53
2023-01-04T06:42:42.204Z,28.93
2023-01-04T06:45:44.013Z,32.37
2023-01-04T06:48:46.004Z,41.57
2023-01-04T06:51:47.807Z,44.00
2023-01-04T06:54:49.568Z,48.97
2023-01-04T06:57:55.018Z,47.60
2023-01-04T07:01:00.700Z,50.60
2023-01-04T07:04:02.373Z,32.30
2023-01-04T07:07:04.063Z,19.47
2023-01-04T07:10:09.741Z,19.63
2023-01-04T07:13:11.762Z,20.33
2023-01-04T07:16:13.422Z,32.33
2023-01-04T07:19:15.011Z,33.20
2023-01-04T07:22:17.208Z,33.30
2023-01-04T07:25:18.990Z,35.10
2023-01-04T07:28:39.254Z,36.50
2023-01-04T07:31:41.052Z,39.33
2023-01-04T07:34:43.912Z,35.60
2023-01-04T07:37:45.547Z,40.43
2023-01-04T07:40:56.716Z,42.80
2023-01-04T07:43:58.904Z,37.80
2023-01-04T07:47:00.483Z,40.83
2023-01-04T07:50:02.253Z,38.13
2023-01-04T07:53:03.851Z,36.93
2023-01-04T07:56:05.637Z,35.93
2023-01-04T07:59:08.224Z,34.97
2023-01-04T08:02:13.397Z,31.50
2023-01-04T08:05:15.305Z,42.57
2023-01-04T08:08:17.006Z,51.53
2023-01-04T08:11:19.301Z,39.17
2023-01-04T08:14:21.046Z,55.30
2023-01-04T08:17:22.633Z,50.77
2023-01-04T08:20:24.306Z,49.10
2023-01-04T08:23:25.878Z,38.80
2023-01-04T08:26:28.018Z,41.20
2023-01-04T08:29:34.750Z,32.33
2023-01-04T08:32:37.030Z,35.90
2023-01-04T08:35:38.677Z,31.13
2023-01-04T08:38:59.263Z,33.70
2023-01-04T08:42:14.583Z,34.30
2023-01-04T08:45:22.286Z,31.83
2023-01-04T08:48:24.864Z,34.30
2023-01-04T08:51:26.823Z,33.67
2023-01-04T08:54:28.505Z,35.73
2023-01-04T08:57:30.169Z,30.03
2023-01-04T09:00:31.987Z,30.73
2023-01-04T09:03:34.101Z,35.07
2023-01-04T09:06:36.756Z,43.73
2023-01-04T09:09:38.427Z,39.63
2023-01-04T09:12:40.121Z,36.57
2023-01-04T09:15:41.906Z,38.10
2023-01-04T09:18:44.037Z,40.03
2023-01-04T09:21:45.686Z,43.60
2023-01-04T09:24:47.423Z,44.93
2023-01-04T09:27:49.031Z,47.20
2023-01-04T09:30:50.733Z,62.97
2023-01-04T09:37:14.218Z,55.10
2023-01-04T09:40:20.675Z,59.00
2023-01-04T09:43:23.652Z,52.17
2023-01-04T09:46:28.368Z,48.70
2023-01-04T09:49:48.305Z,54.67
2023-01-04T09:53:08.840Z,64.20
2023-01-04T09:56:16.645Z,64.40
2023-01-04T09:59:19.779Z,64.23
2023-01-04T10:02:25.753Z,52.33
2023-01-04T10:05:29.073Z,65.13
2023-01-04T10:08:33.725Z,51.93
2023-01-04T10:11:58.741Z,32.47
2023-01-04T10:15:12.083Z,27.57
2023-01-04T10:21:41.553Z,22.13
2023-01-04T10:24:55.525Z,21.37
2023-01-04T10:28:03.473Z,24.90
2023-01-04T10:31:41.016Z,25.20
2023-01-04T10:34:39.005Z,26.13
2023-01-04T10:37:40.989Z,29.37
2023-01-04T10:40:43.867Z,21.50
2023-01-04T10:44:11.482Z,30.63
2023-01-04T10:47:22.595Z,23.60
2023-01-04T10:50:30.093Z,23.43
2023-01-04T10:53:37.809Z,18.47
2023-01-04T10:56:45.621Z,17.27
2023-01-04T10:59:47.185Z,18.83
2023-01-04T11:03:27.498Z,19.90
2023-01-04T11:06:31.169Z,16.83
2023-01-04T11:09:40.197Z,19.03
2023-01-04T11:12:41.845Z,22.07
2023-01-04T11:15:45.323Z,21.80
2023-01-04T11:18:48.936Z,18.77
2023-01-04T11:22:05.808Z,20.57
2023-01-04T11:28:41.050Z,18.67
2023-01-04T11:31:51.201Z,22.73
2023-01-04T11:34:54.215Z,20.87
2023-01-04T11:38:07.050Z,22.90
2023-01-04T11:41:15.821Z,18.83
2023-01-04T11:44:19.007Z,20.80
2023-01-04T11:47:24.247Z,21.47
2023-01-04T11:50:34.558Z,19.77
2023-01-04T11:53:37.315Z,19.47
2023-01-04T11:56:39.785Z,22.23
2023-01-04T11:59:41.503Z,23.03
2023-01-04T12:03:00.699Z,20.30
2023-01-04T12:06:07.648Z,20.07
2023-01-04T12:09:13.383Z,18.83
2023-01-04T12:12:16.075Z,18.00
2023-01-04T12:15:22.770Z,18.57
2023-01-04T12:18:35.175Z,20.17
2023-01-04T12:21:36.767Z,19.43
2023-01-04T12:24:38.946Z,18.00
2023-01-04T12:27:46.784Z,25.47
2023-01-04T12:30:48.496Z,21.53
2023-01-04T12:33:51.022Z,18.50
2023-01-04T12:36:52.705Z,19.37
2023-01-04T12:39:54.287Z,19.40
2023-01-04T12:43:26.001Z,20.93
2023-01-04T12:46:49.438Z,20.03
2023-01-04T12:49:51.385Z,17.77
2023-01-04T12:56:16.348Z,17.87
2023-01-04T12:59:34.237Z,19.77
2023-01-04T13:02:37.058Z,20.20
2023-01-04T13:05:56.121Z,20.10
2023-01-04T13:08:58.795Z,19.60
2023-01-04T13:12:06.865Z,19.70
2023-01-04T13:15:19.296Z,21.10
2023-01-04T13:18:21.316Z,20.33
2023-01-04T13:21:28.766Z,20.33
2023-01-04T13:24:32.134Z,22.70
2023-01-04T13:27:34.185Z,27.07
2023-01-04T13:30:37.900Z,27.30
2023-01-04T13:33:39.609Z,26.80
2023-01-04T13:36:41.192Z,25.80
2023-01-04T13:39:52.724Z,23.30
2023-01-04T13:43:09.740Z,23.60
2023-01-04T13:46:14.403Z,26.13
2023-01-04T13:49:16.533Z,25.00
2023-01-04T13:52:48.352Z,23.17
2023-01-04T13:55:42.798Z,38.30
2023-01-04T13:58:44.462Z,26.17
2023-01-04T14:01:49.193Z,26.43
2023-01-04T14:04:51.003Z,30.70
2023-01-04T14:07:52.653Z,21.27
2023-01-04T14:10:54.320Z,24.20
2023-01-04T14:13:56.023Z,22.43
2023-01-04T14:17:16.827Z,51.17
2023-01-04T14:20:24.523Z,31.27
2023-01-04T14:23:33.721Z,25.93
2023-01-04T14:26:36.131Z,33.20
2023-01-04T14:29:40.209Z,28.97
2023-01-04T14:32:42.173Z,35.47
2023-01-04T14:35:47.882Z,28.50
2023-01-04T14:38:57.751Z,26.07
2023-01-04T14:42:00.317Z,28.30
2023-01-04T14:45:02.195Z,25.43
2023-01-04T14:48:04.021Z,24.93
2023-01-04T14:51:06.216Z,30.67
2023-01-04T14:54:08.737Z,29.80
2023-01-04T14:57:11.195Z,25.43
2023-01-04T15:00:18.967Z,26.00
2023-01-04T15:03:21.449Z,26.67
2023-01-04T15:06:23.274Z,29.80
2023-01-04T15:09:25.457Z,34.63
2023-01-04T15:12:27.093Z,29.97
2023-01-04T15:15:29.143Z,28.40
2023-01-04T15:18:31.014Z,29.93
2023-01-04T15:21:36.911Z,29.07
2023-01-04T15:24:42.099Z,28.43
2023-01-04T15:27:43.799Z,33.53
2023-01-04T15:30:45.619Z,38.37
2023-01-04T15:33:47.325Z,38.73
2023-01-04T15:36:52.437Z,41.80
2023-01-04T15:39:58.391Z,32.87
2023-01-04T15:43:03.855Z,34.20
2023-01-04T15:46:07.498Z,38.00
2023-01-04T15:49:15.030Z,41.30
2023-01-04T15:52:18.784Z,50.60
2023-01-04T15:55:20.414Z,44.50
2023-01-04T15:58:22.147Z,39.30
2023-01-04T16:01:23.923Z,39.90
2023-01-04T16:04:26.863Z,42.13
2023-01-04T16:07:34.198Z,44.63
2023-01-04T16:10:37.768Z,43.43
2023-01-04T16:13:39.709Z,42.17
2023-01-04T16:16:41.448Z,42.40
2023-01-04T16:19:47.299Z,38.17
2023-01-04T16:22:48.938Z,39.47
2023-01-04T16:25:50.584Z,38.67
2023-01-04T16:28:55.795Z,34.13
2023-01-04T16:31:59.003Z,35.80
2023-01-04T16:35:00.935Z,33.53
2023-01-04T16:38:02.583Z,35.70
2023-01-04T16:41:05.463Z,36.10
2023-01-04T16:44:07.331Z,39.33
2023-01-04T16:47:09.218Z,48.83
2023-01-04T16:50:12.291Z,45.63
2023-01-04T16:53:14.178Z,37.90
2023-01-04T16:56:17.120Z,36.50
2023-01-04T16:59:19.200Z,33.63
2023-01-04T17:02:21.218Z,37.10
2023-01-04T17:05:23.276Z,35.67
2023-01-04T17:08:27.138Z,38.87
2023-01-04T17:15:14.999Z,37.83
2023-01-04T17:18:17.182Z,40.80
2023-01-04T17:21:36.017Z,37.13
2023-01-04T17:24:37.968Z,40.87
2023-01-04T17:27:39.710Z,37.63
2023-01-04T17:30:41.497Z,40.97
2023-01-04T17:33:46.945Z,31.67
2023-01-04T17:36:48.595Z,30.40
2023-01-04T17:39:50.379Z,32.10
2023-01-04T17:42:52.123Z,36.10
2023-01-04T17:45:54.024Z,33.10
2023-01-04T17:49:21.134Z,39.27
2023-01-04T17:52:23.259Z,41.80
2023-01-04T17:55:27.714Z,41.30
2023-01-04T17:58:29.641Z,39.23
2023-01-04T18:01:35.850Z,44.60
2023-01-04T18:04:37.831Z,40.27
2023-01-04T18:07:39.502Z,39.03
2023-01-04T18:11:06.186Z,42.00
2023-01-04T18:14:07.997Z,41.40
2023-01-04T18:17:14.030Z,43.57
2023-01-04T18:20:24.552Z,45.63
2023-01-04T18:23:29.130Z,43.90
2023-01-04T18:26:41.512Z,44.57
2023-01-04T18:29:55.729Z,42.93
2023-01-04T18:32:57.466Z,46.20
2023-01-04T18:36:01.889Z,46.77
2023-01-04T18:39:03.967Z,45.33
2023-01-04T18:42:05.581Z,44.33
2023-01-04T18:45:07.517Z,51.90
2023-01-04T18:48:09.224Z,47.97
2023-01-04T18:51:12.528Z,53.40
2023-01-04T18:54:20.435Z,50.10
2023-01-04T18:57:22.069Z,49.37
2023-01-04T19:00:29.739Z,50.03
2023-01-04T19:03:35.488Z,45.07
2023-01-04T19:06:37.225Z,43.70
2023-01-04T19:09:39.614Z,50.27
2023-01-04T19:12:42.883Z,46.17
2023-01-04T19:15:47.769Z,53.50
2023-01-04T19:18:52.396Z,47.63
2023-01-04T19:21:54.207Z,45.43
2023-01-04T19:24:55.951Z,49.93
2023-01-04T19:27:57.542Z,43.27
2023-01-04T19:30:59.129Z,47.30
2023-01-04T19:34:01.212Z,47.57
2023-01-04T19:37:02.868Z,47.37
2023-01-04T19:40:04.759Z,46.17
2023-01-04T19:43:07.619Z,55.17
2023-01-04T19:46:10.095Z,50.50
2023-01-04T19:49:15.110Z,52.23
2023-01-04T19:52:17.073Z,53.57
2023-01-04T19:55:18.730Z,49.07
2023-01-04T19:58:20.399Z,47.07
2023-01-04T20:01:22.859Z,47.90
2023-01-04T20:04:27.503Z,46.37
2023-01-04T20:07:29.088Z,49.17
2023-01-04T20:10:30.743Z,50.20
2023-01-04T20:13:33.569Z,51.43
2023-01-04T20:16:35.267Z,56.67
2023-01-04T20:19:37.021Z,56.43
2023-01-04T20:22:38.715Z,68.67
2023-01-04T20:25:47.217Z,65.73
2023-01-04T20:28:48.943Z,59.90
2023-01-04T20:31:50.772Z,55.60
2023-01-04T20:34:52.577Z,57.13
2023-01-04T20:37:55.812Z,50.83
2023-01-04T20:41:01.635Z,60.33
2023-01-04T20:44:03.307Z,60.97
2023-01-04T20:47:05.018Z,65.63
2023-01-04T20:50:06.951Z,69.00
2023-01-04T20:53:08.949Z,71.40
2023-01-04T20:56:23.874Z,79.57
2023-01-04T20:59:25.511Z,67.10
2023-01-04T21:02:27.261Z,59.53
2023-01-04T21:05:29.140Z,69.87
2023-01-04T21:08:31.060Z,62.57
2023-01-04T21:11:32.668Z,65.53
2023-01-04T21:14:38.114Z,68.40
2023-01-04T21:17:40.395Z,72.30
2023-01-04T21:20:42.811Z,55.10
2023-01-04T21:23:44.835Z,79.33
2023-01-04T21:26:46.501Z,71.80
2023-01-04T21:29:48.193Z,75.80
2023-01-04T21:32:49.803Z,73.53
2023-01-04T21:35:51.520Z,63.93
2023-01-04T21:38:54.498Z,65.57
2023-01-04T21:41:56.079Z,64.70
2023-01-04T21:44:57.927Z,68.60
2023-01-04T21:47:59.549Z,61.17
2023-01-04T21:51:01.842Z,55.60
2023-01-04T21:54:03.823Z,62.13
2023-01-04T21:57:07.830Z,58.80
2023-01-04T22:00:09.754Z,61.13
2023-01-04T22:03:11.805Z,61.37
2023-01-04T22:06:14.132Z,70.53
2023-01-04T22:09:15.856Z,66.70
2023-01-04T22:12:17.633Z,66.63
2023-01-04T22:15:19.285Z,69.77
2023-01-04T22:18:20.929Z,68.83
2023-01-04T22:21:26.587Z,72.93
2023-01-04T22:24:32.643Z,77.63
2023-01-04T22:27:37.316Z,66.67
2023-01-04T22:30:40.155Z,64.67
2023-01-04T22:33:42.115Z,67.23
2023-01-04T22:36:44.045Z,67.57
2023-01-04T22:39:45.687Z,61.17
2023-01-04T22:42:47.303Z,62.27
2023-01-04T22:45:48.950Z,62.20
2023-01-04T22:48:50.559Z,61.13
2023-01-04T22:51:54.427Z,59.03
2023-01-04T22:54:56.024Z,59.23
2023-01-04T22:57:57.619Z,55.47
2023-01-04T23:00:59.249Z,56.43
2023-01-04T23:04:01.459Z,55.13
2023-01-04T23:07:03.187Z,50.50
2023-01-04T23:10:05.052Z,52.57
2023-01-04T23:13:06.674Z,48.63
2023-01-04T23:16:09.762Z,53.33
2023-01-04T23:19:12.653Z,48.97
2023-01-04T23:22:14.394Z,51.83
2023-01-04T23:25:16.037Z,48.43
2023-01-04T23:28:17.780Z,43.87
2023-01-04T23:31:21.461Z,44.50
2023-01-04T23:34:23.196Z,43.60
2023-01-04T23:37:25.333Z,42.43
2023-01-04T23:40:27.008Z,41.40
2023-01-04T23:43:28.674Z,42.53
2023-01-04T23:46:30.261Z,42.57
2023-01-04T23:49:32.812Z,40.00
2023-01-04T23:52:34.457Z,42.77
2023-01-04T23:55:36.001Z,45.13
2023-01-04T23:58:37.596Z,49.73
